This is the latest recevied weather packets stored in our database for station/object EB1BCG-1. If no packets are shown the sender has not sent any weather packets the latest 10 day(s).
| Time | Temp. | Humidity | Pressure | Rain* | Wind** | Luminosity | Snow |
|---|---|---|---|---|---|---|---|
| 1777475765 | 20° C | 62% | 1007.7 hPa | 0 mm | 0 m/s | - | - |
| 1777475161 | 19.44° C | 58% | 1008.1 hPa | 0 mm | 0 m/s | - | - |
| 1777474552 | 20.56° C | 60% | 1008.1 hPa | 0 mm | 0 m/s | - | - |
| 1777473945 | 23.89° C | 66% | 1008.2 hPa | 1.52 mm | 0 m/s | - | - |
| 1777472730 | 21.11° C | 95% | 1008.6 hPa | 1.52 mm | 0 m/s | - | - |
| 1777469822 | 16.11° C | 69% | 1008.8 hPa | 0 mm | 0 m/s | - | - |
| 1777469216 | 16.67° C | 70% | 1008.7 hPa | 0 mm | 0 m/s | - | - |
| 1777468609 | 17.78° C | 72% | 1008.4 hPa | 0 mm | 0 m/s | - | - |
| 1777468003 | 17.78° C | 77% | 1008.7 hPa | 0 mm | 0 m/s | - | - |
| 1777467396 | 15.56° C | 70% | 1009 hPa | 0 mm | 0 m/s | - | - |
| 1777466790 | 16.67° C | 65% | 1008.8 hPa | 0 mm | 0 m/s | - | - |
| 1777466185 | 17.78° C | 68% | 1008.8 hPa | 0.51 mm | 0 m/s | - | - |
| 1777465577 | 18.33° C | 70% | 1009 hPa | 0.51 mm | 0 m/s | - | - |
| 1777463756 | 15° C | 87% | 1009.5 hPa | 0.51 mm | 0 m/s | - | - |
| 1777463148 | 14.44° C | 80% | 1009.5 hPa | 0.51 mm | 0 m/s | - | - |
| 1777462608 | 15° C | 76% | 1009.4 hPa | 0 mm | 0 m/s | - | - |
| 1777462001 | 15.56° C | 77% | 1009.4 hPa | 0 mm | 0 m/s | - | - |
| 1777461396 | 15.56° C | 74% | 1009.4 hPa | 0 mm | 0 m/s | - | - |
| 1777460786 | 15° C | 71% | 1009.3 hPa | 0 mm | 0 m/s | - | - |
| 1777460179 | 16.11° C | 75% | 1009.2 hPa | 0 mm | 0 m/s | - | - |
| 1777459571 | 16.67° C | 72% | 1009 hPa | 0 mm | 0 m/s | - | - |
| 1777458964 | 15.56° C | 68% | 1009.2 hPa | 0 mm | 0 m/s | - | - |
| 1777458357 | 16.11° C | 68% | 1009.2 hPa | 0 mm | 0 m/s | - | - |
| 1777457751 | 16.11° C | 74% | 1009.1 hPa | 0 mm | 0 m/s | - | - |
| 1777457143 | 16.67° C | 75% | 1009.1 hPa | 0 mm | 0 m/s | - | - |
* Rain latest hour (hover to see other rain measurements)
** Current wind speed in m/s (hover to see current wind gust speed)